Griggsville, Illinois
Current Conditions -  °F | °C
As of 6:15 PM on Friday 21 Nov 2014 (Local Time) from KPPQ Reporting Station
Overcast Overcast  
Wind Chill: 30°   Ceiling: 2000
Heat Index: 38°   Visibility: 10mi
Dew Point: 22°   Wind: 13mph
Humidity: 54%   Direction: 130°SE
Pressure: 30.25"   Gusts: NA
Location:  39.71°N, 90.72°W
Report Text: KPPQ 220015Z AUTO 13011KT 10SM OVC020 03/M05 A3025 RMK AO2 T00311055 PWINO
Loading
Personal Weather Stations






























Interactive Weather Map New forecast layout! Learn more

10-Day Weather Forecast

Advertisements
Track Severe Weather on mobile